Time;durP1;ratioP1;P1;durP2;ratioP2;P2;SDS_P1;SDS_P2;PMS_P1;PMS_P2;Temp;Humidity;BMP_temperature;BMP_pressure;BME280_temperature;BME280_humidity;BME280_pressure;Samples;Min_cycle;Max_cycle;Signal;HPM_P1;HPM_P2
2021/06/21 00:01:19;;;;;;;10.70;3.50;;;;;;;;;;5095902;28;20031;-67
2021/06/21 00:03:44;;;;;;;8.90;4.10;;;;;;;;;;5095410;28;20059;-68
2021/06/21 00:06:09;;;;;;;8.90;3.78;;;;;;;;;;5095725;28;20043;-68
2021/06/21 00:08:34;;;;;;;13.15;3.85;;;;;;;;;;5095519;28;20031;-67
2021/06/21 00:11:00;;;;;;;7.55;4.05;;;;;;;;;;5095601;28;20055;-67
2021/06/21 00:13:25;;;;;;;7.63;3.63;;;;;;;;;;5095511;28;20032;-67
2021/06/21 00:15:52;;;;;;;5.07;3.33;;;;;;;;;;5095516;28;20016;-67
2021/06/21 00:18:17;;;;;;;8.90;4.18;;;;;;;;;;5095384;28;20074;-67
2021/06/21 00:20:42;;;;;;;10.90;4.18;;;;;;;;;;5095424;28;20055;-68
2021/06/21 00:23:08;;;;;;;7.88;3.88;;;;;;;;;;5095106;28;20027;-67
2021/06/21 00:25:33;;;;;;;8.52;3.95;;;;;;;;;;5095234;28;20036;-67
2021/06/21 00:27:58;;;;;;;7.90;3.85;;;;;;;;;;5095587;28;20039;-67
2021/06/21 00:30:24;;;;;;;6.82;3.80;;;;;;;;;;5095007;28;20024;-67
2021/06/21 00:32:50;;;;;;;8.65;3.95;;;;;;;;;;5094481;28;20473;-67
2021/06/21 00:35:16;;;;;;;11.68;4.25;;;;;;;;;;5095237;28;20040;-67
2021/06/21 00:37:41;;;;;;;11.18;4.57;;;;;;;;;;5094736;28;20465;-67
2021/06/21 00:40:08;;;;;;;6.75;3.80;;;;;;;;;;5095071;28;20034;-67
2021/06/21 00:42:34;;;;;;;8.10;3.92;;;;;;;;;;5094864;28;20495;-68
2021/06/21 00:44:59;;;;;;;8.50;4.55;;;;;;;;;;5094807;28;20024;-67
2021/06/21 00:47:24;;;;;;;9.63;4.30;;;;;;;;;;5094978;28;20465;-67
2021/06/21 00:49:50;;;;;;;7.93;3.85;;;;;;;;;;5094734;28;20036;-68
2021/06/21 00:52:17;;;;;;;7.75;4.10;;;;;;;;;;5093040;28;20016;-67
2021/06/21 00:54:43;;;;;;;9.18;4.13;;;;;;;;;;5092648;28;20024;-67
2021/06/21 00:57:08;;;;;;;7.80;4.22;;;;;;;;;;5093596;28;20385;-67
2021/06/21 00:59:33;;;;;;;10.23;4.13;;;;;;;;;;5093671;28;20024;-67
2021/06/21 01:01:59;;;;;;;9.27;4.00;;;;;;;;;;5093574;28;20039;-67
2021/06/21 01:04:24;;;;;;;5.90;3.20;;;;;;;;;;5093423;28;20054;-67
2021/06/21 01:06:49;;;;;;;6.20;3.83;;;;;;;;;;5093800;28;20107;-67
2021/06/21 01:09:15;;;;;;;8.90;4.15;;;;;;;;;;5094065;28;20046;-68
2021/06/21 01:11:57;;;;;;;8.95;3.58;;;;;;;;;;5094696;28;20052;-67
2021/06/21 01:14:27;;;;;;;10.13;4.22;;;;;;;;;;5094312;28;20028;-67
2021/06/21 01:16:55;;;;;;;6.30;3.45;;;;;;;;;;5094391;28;20035;-67
2021/06/21 01:19:41;;;;;;;10.15;4.32;;;;;;;;;;5094348;28;20407;-67
2021/06/21 01:22:21;;;;;;;8.70;3.53;;;;;;;;;;5094420;28;20024;-67
2021/06/21 01:25:01;;;;;;;8.75;3.70;;;;;;;;;;5094144;28;20484;-68
2021/06/21 01:27:30;;;;;;;7.07;3.15;;;;;;;;;;5094196;28;20480;-68
2021/06/21 01:29:58;;;;;;;8.30;3.25;;;;;;;;;;5094063;28;20032;-68
2021/06/21 01:32:41;;;;;;;8.38;3.63;;;;;;;;;;5093891;28;20460;-67
2021/06/21 01:35:09;;;;;;;7.53;3.35;;;;;;;;;;5093676;28;20536;-68
2021/06/21 01:37:35;;;;;;;9.23;3.65;;;;;;;;;;5093271;28;20054;-67
2021/06/21 01:40:01;;;;;;;6.05;3.42;;;;;;;;;;5093913;28;20409;-68
2021/06/21 01:42:26;;;;;;;7.78;3.20;;;;;;;;;;5093281;28;20032;-68
2021/06/21 01:44:54;;;;;;;6.50;3.40;;;;;;;;;;5093669;28;20437;-68
2021/06/21 01:47:20;;;;;;;7.30;3.03;;;;;;;;;;5093810;28;20028;-68
2021/06/21 01:49:46;;;;;;;8.68;3.47;;;;;;;;;;5093592;28;20427;-67
2021/06/21 01:52:13;;;;;;;6.20;3.38;;;;;;;;;;5093449;28;20472;-67
2021/06/21 01:54:41;;;;;;;10.38;3.45;;;;;;;;;;5093634;28;20079;-68
2021/06/21 01:57:07;;;;;;;7.60;3.40;;;;;;;;;;5094098;28;20187;-68
2021/06/21 01:59:32;;;;;;;6.47;3.78;;;;;;;;;;5093325;28;20120;-67
2021/06/21 02:01:59;;;;;;;4.60;2.78;;;;;;;;;;5093347;28;20432;-68
2021/06/21 02:04:26;;;;;;;6.03;3.65;;;;;;;;;;5093415;28;20056;-67
2021/06/21 02:06:52;;;;;;;6.20;3.35;;;;;;;;;;5093107;28;20492;-67
2021/06/21 02:09:22;;;;;;;6.80;3.20;;;;;;;;;;5093536;28;20077;-67
2021/06/21 02:11:48;;;;;;;7.35;3.42;;;;;;;;;;5093687;28;20032;-68
2021/06/21 02:14:14;;;;;;;7.28;3.22;;;;;;;;;;5093407;28;20487;-67
2021/06/21 02:16:41;;;;;;;6.50;3.70;;;;;;;;;;5093408;28;20032;-67
2021/06/21 02:19:06;;;;;;;8.02;3.47;;;;;;;;;;5093336;28;20026;-68
2021/06/21 02:21:32;;;;;;;10.05;3.60;;;;;;;;;;5093139;28;20115;-67
2021/06/21 02:23:57;;;;;;;9.52;3.70;;;;;;;;;;5093252;28;20457;-68
2021/06/21 02:26:23;;;;;;;6.75;3.00;;;;;;;;;;5093254;28;20040;-67
2021/06/21 02:28:50;;;;;;;7.70;3.95;;;;;;;;;;5093161;28;20035;-68
2021/06/21 02:31:15;;;;;;;9.63;3.45;;;;;;;;;;5093260;28;20095;-67
2021/06/21 02:33:40;;;;;;;7.05;3.60;;;;;;;;;;5092832;28;20110;-68
2021/06/21 02:36:06;;;;;;;9.88;3.63;;;;;;;;;;5092806;28;20028;-67
2021/06/21 02:38:31;;;;;;;11.70;4.15;;;;;;;;;;5093174;28;20437;-67
2021/06/21 02:40:56;;;;;;;6.13;3.05;;;;;;;;;;5093235;28;20024;-67
2021/06/21 02:43:22;;;;;;;6.00;3.45;;;;;;;;;;5093160;28;20085;-68
2021/06/21 02:45:47;;;;;;;10.93;3.60;;;;;;;;;;5093032;28;20107;-67
2021/06/21 02:48:13;;;;;;;6.80;3.60;;;;;;;;;;5092795;28;20031;-67
2021/06/21 02:50:45;;;;;;;6.40;3.67;;;;;;;;;;5093050;28;20044;-67
2021/06/21 02:53:25;;;;;;;11.05;3.78;;;;;;;;;;5093009;28;20047;-67
2021/06/21 02:55:53;;;;;;;9.10;3.28;;;;;;;;;;5096885;28;20028;-67
2021/06/21 02:58:24;;;;;;;8.25;3.30;;;;;;;;;;5097057;28;20059;-67
2021/06/21 03:00:51;;;;;;;9.05;3.90;;;;;;;;;;5097287;28;20031;-67
2021/06/21 03:03:16;;;;;;;8.48;4.15;;;;;;;;;;5096875;28;20024;-67
2021/06/21 03:05:44;;;;;;;9.02;4.28;;;;;;;;;;5096905;28;20043;-68
2021/06/21 03:08:10;;;;;;;9.05;3.75;;;;;;;;;;5096869;28;20032;-67
2021/06/21 03:10:37;;;;;;;8.77;3.63;;;;;;;;;;5096809;28;20043;-67
2021/06/21 03:13:03;;;;;;;8.30;4.68;;;;;;;;;;5096881;28;20345;-67
2021/06/21 03:15:29;;;;;;;8.65;4.05;;;;;;;;;;5096685;28;20057;-67
2021/06/21 03:17:55;;;;;;;8.75;4.32;;;;;;;;;;5096740;28;20097;-67
2021/06/21 03:20:20;;;;;;;8.20;3.80;;;;;;;;;;5096606;28;20050;-67
2021/06/21 03:22:53;;;;;;;7.43;4.03;;;;;;;;;;5095328;28;20066;-68
2021/06/21 03:25:23;;;;;;;8.73;4.38;;;;;;;;;;5096457;28;20042;-67
2021/06/21 03:27:49;;;;;;;10.98;5.10;;;;;;;;;;5095740;28;20112;-67
2021/06/21 03:30:14;;;;;;;7.30;4.30;;;;;;;;;;5096449;28;20055;-67
2021/06/21 03:32:45;;;;;;;10.48;4.15;;;;;;;;;;5096065;28;20031;-67
2021/06/21 03:35:11;;;;;;;8.23;4.55;;;;;;;;;;5096248;28;20149;-67
2021/06/21 03:37:37;;;;;;;12.50;4.47;;;;;;;;;;5096300;28;20062;-67
2021/06/21 03:40:03;;;;;;;9.90;4.78;;;;;;;;;;5096120;28;20051;-67
2021/06/21 03:42:29;;;;;;;10.15;5.07;;;;;;;;;;5096334;28;20032;-67
2021/06/21 03:44:54;;;;;;;13.23;4.82;;;;;;;;;;5096086;28;20434;-67
2021/06/21 03:47:19;;;;;;;10.27;4.90;;;;;;;;;;5096136;28;20115;-67
2021/06/21 03:49:46;;;;;;;9.80;4.70;;;;;;;;;;5096041;28;20059;-67
2021/06/21 03:52:11;;;;;;;13.30;4.75;;;;;;;;;;5095845;28;20115;-67
2021/06/21 03:54:37;;;;;;;10.73;4.70;;;;;;;;;;5096000;28;20571;-67
2021/06/21 03:57:03;;;;;;;9.80;4.88;;;;;;;;;;5095956;28;20032;-68
2021/06/21 03:59:29;;;;;;;16.80;5.20;;;;;;;;;;5095968;28;20032;-67
2021/06/21 04:01:55;;;;;;;11.93;4.28;;;;;;;;;;5095561;28;20031;-67
2021/06/21 04:04:21;;;;;;;13.00;4.68;;;;;;;;;;5095823;28;20052;-67
2021/06/21 04:06:46;;;;;;;12.10;4.75;;;;;;;;;;5094792;28;20384;-68
2021/06/21 04:09:11;;;;;;;9.25;4.60;;;;;;;;;;5095663;28;20107;-67
2021/06/21 04:11:37;;;;;;;11.00;4.38;;;;;;;;;;5095710;28;20519;-68
2021/06/21 04:14:02;;;;;;;8.68;4.50;;;;;;;;;;5095543;28;20028;-68
2021/06/21 04:16:28;;;;;;;10.88;4.72;;;;;;;;;;5095740;28;20384;-67
2021/06/21 04:18:53;;;;;;;14.65;5.00;;;;;;;;;;5095417;28;20035;-67
2021/06/21 04:21:18;;;;;;;11.30;4.85;;;;;;;;;;5095684;28;20502;-67
2021/06/21 04:23:43;;;;;;;11.25;4.85;;;;;;;;;;5095080;28;20525;-67
2021/06/21 04:26:09;;;;;;;9.23;4.80;;;;;;;;;;5095438;28;20129;-67
2021/06/21 04:28:34;;;;;;;9.57;4.50;;;;;;;;;;5095128;28;20039;-67
2021/06/21 04:30:59;;;;;;;13.48;4.95;;;;;;;;;;5095417;28;20514;-67
2021/06/21 04:33:25;;;;;;;12.13;5.43;;;;;;;;;;5095243;28;20098;-68
2021/06/21 04:35:50;;;;;;;13.90;4.85;;;;;;;;;;5095148;28;20020;-67
2021/06/21 04:38:17;;;;;;;9.40;4.07;;;;;;;;;;5094913;28;20372;-67
2021/06/21 04:40:42;;;;;;;13.80;5.00;;;;;;;;;;5094996;28;20020;-67
2021/06/21 04:43:08;;;;;;;10.48;5.28;;;;;;;;;;5095139;28;20031;-67
2021/06/21 04:45:34;;;;;;;11.48;5.05;;;;;;;;;;5094804;28;20357;-67
2021/06/21 04:48:00;;;;;;;12.18;5.38;;;;;;;;;;5095060;28;20035;-67
2021/06/21 04:50:25;;;;;;;11.23;4.30;;;;;;;;;;5094907;28;20418;-67
2021/06/21 04:52:51;;;;;;;9.63;4.93;;;;;;;;;;5094901;28;20478;-67
2021/06/21 04:55:17;;;;;;;9.13;4.60;;;;;;;;;;5094814;28;20028;-67
2021/06/21 04:57:42;;;;;;;11.35;4.20;;;;;;;;;;5094742;28;20051;-67
2021/06/21 05:00:09;;;;;;;15.00;4.43;;;;;;;;;;5094752;28;20372;-67
2021/06/21 05:02:35;;;;;;;12.45;4.75;;;;;;;;;;5094601;28;20028;-67
2021/06/21 05:05:00;;;;;;;16.77;5.30;;;;;;;;;;5094100;28;20134;-68
2021/06/21 05:07:25;;;;;;;8.25;4.88;;;;;;;;;;5094558;28;20032;-67
2021/06/21 05:09:51;;;;;;;8.68;4.35;;;;;;;;;;5093135;28;20036;-67
2021/06/21 05:12:16;;;;;;;8.90;4.40;;;;;;;;;;5094569;28;20043;-67
2021/06/21 05:14:42;;;;;;;10.50;5.38;;;;;;;;;;5094304;28;20028;-68
2021/06/21 05:17:08;;;;;;;8.88;4.43;;;;;;;;;;5094345;28;20536;-68
2021/06/21 05:19:33;;;;;;;12.35;4.47;;;;;;;;;;5094282;28;20024;-67
2021/06/21 05:21:59;;;;;;;14.30;6.15;;;;;;;;;;5094368;28;20020;-67
2021/06/21 05:24:24;;;;;;;13.20;6.10;;;;;;;;;;5094281;28;20024;-67
2021/06/21 05:26:49;;;;;;;14.68;4.60;;;;;;;;;;5094237;28;20040;-68
2021/06/21 05:29:14;;;;;;;9.23;4.18;;;;;;;;;;5094084;28;20027;-67
2021/06/21 05:31:40;;;;;;;8.57;4.10;;;;;;;;;;5094144;28;20028;-67
2021/06/21 05:34:06;;;;;;;11.30;3.97;;;;;;;;;;5093694;28;20574;-67
2021/06/21 05:36:31;;;;;;;11.90;4.75;;;;;;;;;;5093920;28;20095;-67
2021/06/21 05:38:56;;;;;;;12.52;4.13;;;;;;;;;;5093577;28;20024;-67
2021/06/21 05:41:22;;;;;;;11.13;4.38;;;;;;;;;;5094035;28;20071;-67
2021/06/21 05:43:47;;;;;;;8.27;4.15;;;;;;;;;;5089421;28;20058;-67
2021/06/21 05:46:12;;;;;;;10.05;3.97;;;;;;;;;;5073550;28;20487;-68
2021/06/21 05:48:37;;;;;;;8.95;4.70;;;;;;;;;;5073436;28;20036;-67
2021/06/21 05:51:03;;;;;;;11.90;4.00;;;;;;;;;;5073582;28;20020;-67
2021/06/21 05:53:29;;;;;;;10.07;4.10;;;;;;;;;;5073597;28;20067;-67
2021/06/21 05:55:54;;;;;;;8.57;3.90;;;;;;;;;;5073401;28;20564;-67
2021/06/21 05:58:19;;;;;;;11.48;3.88;;;;;;;;;;5073534;28;20012;-68
2021/06/21 06:00:45;;;;;;;10.63;4.05;;;;;;;;;;5073305;28;20055;-67
2021/06/21 06:03:10;;;;;;;12.48;4.82;;;;;;;;;;5073239;28;20064;-67
2021/06/21 06:05:35;;;;;;;6.70;3.47;;;;;;;;;;5087765;28;20354;-67
2021/06/21 06:08:01;;;;;;;11.65;4.20;;;;;;;;;;5092674;28;20056;-67
2021/06/21 06:10:26;;;;;;;12.50;4.53;;;;;;;;;;5093526;28;20031;-67
2021/06/21 06:12:51;;;;;;;11.77;4.00;;;;;;;;;;5091362;28;20028;-67
2021/06/21 06:15:17;;;;;;;12.85;4.03;;;;;;;;;;5093455;28;21001;-67
2021/06/21 06:17:42;;;;;;;8.90;3.95;;;;;;;;;;5093309;28;20552;-67
2021/06/21 06:20:08;;;;;;;10.25;3.90;;;;;;;;;;5092345;28;20065;-68
2021/06/21 06:22:33;;;;;;;8.40;4.00;;;;;;;;;;5093249;28;20127;-67
2021/06/21 06:24:59;;;;;;;6.68;3.42;;;;;;;;;;5093487;28;20027;-67
2021/06/21 06:27:24;;;;;;;8.98;3.88;;;;;;;;;;5093019;28;20081;-68
2021/06/21 06:29:50;;;;;;;10.25;4.20;;;;;;;;;;5092672;28;20024;-67
2021/06/21 06:32:15;;;;;;;8.45;4.18;;;;;;;;;;5093351;28;20028;-67
2021/06/21 06:34:40;;;;;;;10.60;3.85;;;;;;;;;;5093037;28;20514;-67
2021/06/21 06:37:06;;;;;;;13.38;4.05;;;;;;;;;;5093282;28;20028;-67
2021/06/21 06:39:32;;;;;;;10.95;4.05;;;;;;;;;;5093157;28;20107;-67
2021/06/21 06:41:57;;;;;;;5.75;3.30;;;;;;;;;;5093159;28;20055;-67
2021/06/21 06:44:23;;;;;;;13.18;3.80;;;;;;;;;;5093080;28;20032;-68
2021/06/21 06:46:48;;;;;;;8.93;3.78;;;;;;;;;;5092841;28;20043;-68
2021/06/21 06:49:13;;;;;;;9.05;3.55;;;;;;;;;;5093026;28;20100;-68
2021/06/21 06:51:43;;;;;;;9.48;3.70;;;;;;;;;;5093355;28;20469;-68
2021/06/21 06:54:22;;;;;;;7.95;3.97;;;;;;;;;;5092943;28;20067;-67
2021/06/21 06:57:01;;;;;;;7.25;3.47;;;;;;;;;;5092534;28;20029;-67
2021/06/21 06:59:27;;;;;;;9.05;4.10;;;;;;;;;;5092717;28;20032;-67
2021/06/21 07:01:53;;;;;;;7.32;3.38;;;;;;;;;;5091615;28;20031;-68
2021/06/21 07:04:18;;;;;;;4.78;2.83;;;;;;;;;;5092576;28;20411;-67
2021/06/21 07:06:43;;;;;;;8.10;4.13;;;;;;;;;;5092781;28;20392;-67
2021/06/21 07:09:09;;;;;;;5.57;3.08;;;;;;;;;;5093044;28;20020;-67
2021/06/21 07:11:36;;;;;;;10.30;4.13;;;;;;;;;;5087974;28;20032;-67
2021/06/21 07:14:02;;;;;;;6.22;3.30;;;;;;;;;;5092802;28;20024;-66
2021/06/21 07:16:27;;;;;;;6.72;3.33;;;;;;;;;;5089773;28;20177;-65
2021/06/21 07:18:53;;;;;;;8.68;3.08;;;;;;;;;;5088887;28;20119;-67
2021/06/21 07:21:18;;;;;;;5.82;3.08;;;;;;;;;;5091127;28;20016;-67
2021/06/21 07:23:43;;;;;;;10.98;3.70;;;;;;;;;;5091449;28;20368;-67
2021/06/21 07:26:09;;;;;;;8.65;3.50;;;;;;;;;;5091148;28;20105;-67
2021/06/21 07:28:34;;;;;;;6.97;3.20;;;;;;;;;;5091038;28;20023;-66
2021/06/21 07:31:00;;;;;;;10.32;4.65;;;;;;;;;;5082381;28;20032;-67
2021/06/21 07:33:25;;;;;;;10.05;3.72;;;;;;;;;;5088875;28;20426;-67
2021/06/21 07:35:51;;;;;;;9.38;3.67;;;;;;;;;;5088462;28;20035;-67
2021/06/21 07:38:17;;;;;;;7.95;3.83;;;;;;;;;;5088842;28;20373;-67
2021/06/21 07:40:42;;;;;;;5.88;3.22;;;;;;;;;;5088096;28;20381;-67
2021/06/21 07:43:08;;;;;;;6.63;3.47;;;;;;;;;;5092905;28;20027;-67
2021/06/21 07:45:33;;;;;;;7.88;3.53;;;;;;;;;;5080585;28;20361;-68
2021/06/21 07:47:59;;;;;;;5.13;3.17;;;;;;;;;;5072412;28;20112;-67
2021/06/21 07:50:27;;;;;;;10.90;3.53;;;;;;;;;;5071853;28;20020;-67
2021/06/21 07:52:52;;;;;;;9.15;3.97;;;;;;;;;;5084835;28;20024;-67
2021/06/21 07:55:17;;;;;;;7.47;3.30;;;;;;;;;;5092406;28;20385;-67
2021/06/21 07:57:43;;;;;;;9.85;3.35;;;;;;;;;;5076503;28;20020;-66
2021/06/21 08:00:08;;;;;;;8.13;3.47;;;;;;;;;;5071871;28;20075;-68
2021/06/21 08:02:33;;;;;;;6.53;2.95;;;;;;;;;;5072077;28;20032;-67
2021/06/21 08:04:59;;;;;;;10.07;4.10;;;;;;;;;;5071582;28;20044;-68
2021/06/21 08:07:24;;;;;;;7.38;3.28;;;;;;;;;;5082814;28;20088;-67
2021/06/21 08:09:49;;;;;;;11.38;3.45;;;;;;;;;;5091238;28;20039;-67
2021/06/21 08:12:15;;;;;;;7.00;3.20;;;;;;;;;;5092943;28;20020;-67
2021/06/21 08:14:41;;;;;;;5.78;3.33;;;;;;;;;;5091819;28;20460;-67
2021/06/21 08:17:07;;;;;;;9.98;4.05;;;;;;;;;;5092066;28;20032;-67
2021/06/21 08:19:32;;;;;;;5.60;3.13;;;;;;;;;;5091660;28;20475;-67
2021/06/21 08:21:57;;;;;;;9.63;3.70;;;;;;;;;;5092144;28;20024;-67
2021/06/21 08:24:23;;;;;;;8.98;3.80;;;;;;;;;;5091571;28;20036;-67
2021/06/21 08:26:48;;;;;;;9.65;3.05;;;;;;;;;;5091254;28;20040;-67
2021/06/21 08:29:14;;;;;;;4.13;2.85;;;;;;;;;;5091810;28;20020;-67
2021/06/21 08:31:39;;;;;;;9.18;3.50;;;;;;;;;;5091236;28;20036;-67
2021/06/21 08:34:04;;;;;;;7.45;3.10;;;;;;;;;;5091663;28;20023;-67
2021/06/21 08:36:29;;;;;;;6.93;3.65;;;;;;;;;;5092341;28;20448;-66
2021/06/21 08:38:55;;;;;;;6.80;3.40;;;;;;;;;;5090519;28;20040;-66
2021/06/21 08:41:20;;;;;;;8.65;4.05;;;;;;;;;;5090555;28;20070;-67
2021/06/21 08:43:47;;;;;;;10.60;3.67;;;;;;;;;;5091348;28;20016;-67
2021/06/21 08:46:12;;;;;;;10.07;3.85;;;;;;;;;;5091481;28;20044;-67
2021/06/21 08:48:40;;;;;;;8.18;3.45;;;;;;;;;;5091438;28;20027;-66
2021/06/21 08:51:06;;;;;;;8.20;3.08;;;;;;;;;;5091794;28;20380;-67
2021/06/21 08:53:31;;;;;;;5.38;3.17;;;;;;;;;;5091103;28;20024;-67
2021/06/21 08:55:57;;;;;;;7.47;3.63;;;;;;;;;;5091067;28;20016;-67
2021/06/21 08:58:22;;;;;;;6.80;3.65;;;;;;;;;;5091575;28;20376;-67
2021/06/21 09:00:48;;;;;;;6.15;3.25;;;;;;;;;;5090094;28;20042;-67
2021/06/21 09:03:14;;;;;;;7.47;2.78;;;;;;;;;;5091620;28;20016;-65
2021/06/21 09:05:40;;;;;;;7.13;2.95;;;;;;;;;;5091100;28;20071;-67
2021/06/21 09:08:07;;;;;;;4.95;2.88;;;;;;;;;;5091296;28;20060;-67
2021/06/21 09:10:33;;;;;;;8.95;2.95;;;;;;;;;;5090738;28;20073;-67
2021/06/21 09:13:05;;;;;;;8.85;3.10;;;;;;;;;;5089669;28;20024;-68
2021/06/21 09:15:32;;;;;;;10.27;3.83;;;;;;;;;;5090733;28;20038;-67
2021/06/21 09:17:57;;;;;;;4.30;2.40;;;;;;;;;;5090820;28;20024;-67
2021/06/21 09:20:22;;;;;;;6.07;2.72;;;;;;;;;;5090463;28;20096;-67
2021/06/21 09:22:53;;;;;;;4.40;2.50;;;;;;;;;;5091046;28;20032;-67
2021/06/21 09:25:19;;;;;;;7.40;2.78;;;;;;;;;;5090946;28;20055;-68
2021/06/21 09:27:57;;;;;;;9.27;3.10;;;;;;;;;;5089029;28;20582;-67
2021/06/21 09:30:23;;;;;;;7.47;3.03;;;;;;;;;;5090941;28;20038;-67
2021/06/21 09:32:50;;;;;;;8.40;2.55;;;;;;;;;;5090310;28;20106;-67
2021/06/21 09:35:30;;;;;;;4.57;2.50;;;;;;;;;;5089694;28;20111;-67
2021/06/21 09:37:56;;;;;;;9.15;2.78;;;;;;;;;;5091115;28;20073;-67
2021/06/21 09:40:29;;;;;;;4.60;2.22;;;;;;;;;;5089725;28;20044;-67
2021/06/21 09:42:55;;;;;;;6.90;2.60;;;;;;;;;;5089780;28;20019;-67
2021/06/21 09:45:20;;;;;;;4.75;2.75;;;;;;;;;;5089779;28;20502;-67
2021/06/21 09:47:46;;;;;;;8.20;2.50;;;;;;;;;;5090288;28;20043;-67
2021/06/21 09:50:17;;;;;;;7.30;3.08;;;;;;;;;;5090498;28;20092;-67
2021/06/21 09:52:51;;;;;;;5.25;2.38;;;;;;;;;;5090011;28;20036;-66
2021/06/21 09:55:24;;;;;;;6.32;3.25;;;;;;;;;;5090220;28;20031;-67
2021/06/21 09:58:01;;;;;;;7.72;2.58;;;;;;;;;;5090158;28;20034;-67
2021/06/21 10:00:26;;;;;;;7.07;2.90;;;;;;;;;;5089941;28;20035;-67
2021/06/21 10:03:04;;;;;;;6.60;2.78;;;;;;;;;;5089746;28;20081;-68
2021/06/21 10:05:29;;;;;;;8.85;2.78;;;;;;;;;;5089033;28;20040;-67
2021/06/21 10:07:56;;;;;;;4.70;2.80;;;;;;;;;;5090143;28;20032;-67
2021/06/21 10:10:22;;;;;;;6.03;2.58;;;;;;;;;;5089845;28;20036;-67
2021/06/21 10:12:48;;;;;;;6.40;3.03;;;;;;;;;;5089664;28;20577;-67
2021/06/21 10:15:13;;;;;;;6.47;2.80;;;;;;;;;;5089697;28;20039;-67
2021/06/21 10:17:39;;;;;;;7.07;3.13;;;;;;;;;;5090006;28;20043;-68
2021/06/21 10:20:05;;;;;;;8.93;3.40;;;;;;;;;;5089606;28;20024;-68
2021/06/21 10:22:30;;;;;;;6.93;2.90;;;;;;;;;;5090151;28;20020;-66
2021/06/21 10:24:57;;;;;;;7.10;2.47;;;;;;;;;;5089508;28;20092;-67
2021/06/21 10:27:23;;;;;;;8.68;2.95;;;;;;;;;;5089803;28;20383;-67
2021/06/21 10:29:48;;;;;;;7.30;2.65;;;;;;;;;;5087628;28;20039;-67
2021/06/21 10:32:14;;;;;;;5.90;2.40;;;;;;;;;;5089116;28;20027;-68
2021/06/21 10:34:40;;;;;;;4.45;2.53;;;;;;;;;;5088803;28;20063;-67
2021/06/21 10:37:17;;;;;;;7.63;2.60;;;;;;;;;;5089754;28;20078;-67
2021/06/21 10:39:47;;;;;;;4.60;2.30;;;;;;;;;;5090251;28;20122;-67
2021/06/21 10:42:12;;;;;;;5.13;2.75;;;;;;;;;;5089833;28;20035;-68
2021/06/21 10:44:41;;;;;;;7.13;2.55;;;;;;;;;;5089203;28;20460;-67
2021/06/21 10:47:25;;;;;;;9.88;2.63;;;;;;;;;;5089656;28;20039;-68
2021/06/21 10:50:11;;;;;;;6.25;2.63;;;;;;;;;;5088156;28;20548;-67
2021/06/21 10:52:36;;;;;;;4.85;2.50;;;;;;;;;;5088628;28;20094;-66
2021/06/21 10:55:20;;;;;;;4.57;2.35;;;;;;;;;;5089791;28;20039;-67
2021/06/21 10:57:45;;;;;;;4.93;2.53;;;;;;;;;;5089384;28;20032;-67
2021/06/21 11:00:12;;;;;;;7.60;2.50;;;;;;;;;;5089163;28;20030;-66
2021/06/21 11:02:37;;;;;;;9.50;2.28;;;;;;;;;;5090018;28;20028;-67
2021/06/21 11:05:02;;;;;;;8.80;2.70;;;;;;;;;;5088881;28;20044;-67
2021/06/21 11:07:28;;;;;;;6.25;2.65;;;;;;;;;;5089435;28;20036;-68
2021/06/21 11:09:55;;;;;;;5.72;2.60;;;;;;;;;;5089419;28;20380;-68
2021/06/21 11:12:20;;;;;;;4.07;2.40;;;;;;;;;;5089373;28;20419;-68
2021/06/21 11:15:09;;;;;;;6.30;2.70;;;;;;;;;;5089881;28;20028;-67
2021/06/21 11:17:46;;;;;;;6.28;2.70;;;;;;;;;;5092132;28;20044;-68
2021/06/21 11:20:29;;;;;;;5.50;2.47;;;;;;;;;;5093185;28;20071;-68
2021/06/21 11:22:59;;;;;;;5.82;2.30;;;;;;;;;;5093333;28;20483;-67
2021/06/21 11:25:26;;;;;;;3.50;2.45;;;;;;;;;;5092655;28;20069;-67
2021/06/21 11:27:51;;;;;;;3.92;2.50;;;;;;;;;;5093721;28;20044;-68
2021/06/21 11:30:22;;;;;;;4.53;2.30;;;;;;;;;;5092966;28;20103;-67
2021/06/21 11:32:55;;;;;;;5.15;2.75;;;;;;;;;;5092813;28;20043;-67
2021/06/21 11:35:59;;;;;;;5.82;2.75;;;;;;;;;;5093097;28;20024;-67
2021/06/21 11:38:29;;;;;;;7.30;2.33;;;;;;;;;;5050459;28;20044;-68
2021/06/21 11:41:13;;;;;;;8.07;2.55;;;;;;;;;;5050284;28;20552;-67
2021/06/21 11:43:49;;;;;;;5.25;2.40;;;;;;;;;;5076632;28;20436;-68
2021/06/21 11:46:33;;;;;;;6.70;2.47;;;;;;;;;;5092238;28;20051;-68
2021/06/21 11:49:05;;;;;;;7.40;3.10;;;;;;;;;;5093074;28;20036;-68
2021/06/21 11:51:30;;;;;;;5.13;2.53;;;;;;;;;;5093123;28;20025;-68
2021/06/21 11:53:59;;;;;;;4.88;2.17;;;;;;;;;;5092691;28;20438;-67
2021/06/21 11:56:24;;;;;;;6.00;2.22;;;;;;;;;;5092092;28;20039;-67
2021/06/21 11:58:50;;;;;;;5.63;2.65;;;;;;;;;;5092451;28;20040;-67
2021/06/21 12:01:17;;;;;;;4.07;2.28;;;;;;;;;;5092359;28;20574;-67
2021/06/21 12:03:45;;;;;;;5.63;2.47;;;;;;;;;;5091985;28;20527;-67
2021/06/21 12:06:14;;;;;;;3.60;2.22;;;;;;;;;;5093115;28;20500;-65
2021/06/21 12:08:39;;;;;;;7.15;2.70;;;;;;;;;;5093497;28;20024;-68
2021/06/21 12:11:15;;;;;;;6.93;2.45;;;;;;;;;;5092958;28;20032;-67
2021/06/21 12:13:42;;;;;;;4.70;2.40;;;;;;;;;;5093275;28;20503;-68
2021/06/21 12:16:08;;;;;;;3.72;2.15;;;;;;;;;;5092750;28;20067;-68
2021/06/21 12:18:33;;;;;;;6.47;2.78;;;;;;;;;;5092621;28;20046;-67
2021/06/21 12:20:59;;;;;;;4.97;2.50;;;;;;;;;;5092295;28;20099;-67
2021/06/21 12:23:26;;;;;;;6.20;2.53;;;;;;;;;;5092951;28;20036;-68
2021/06/21 12:25:51;;;;;;;5.53;2.45;;;;;;;;;;5092242;28;20491;-67
2021/06/21 12:28:24;;;;;;;3.45;1.98;;;;;;;;;;5092394;28;20108;-68
2021/06/21 12:30:50;;;;;;;3.13;2.05;;;;;;;;;;5093029;28;20081;-67
2021/06/21 12:33:26;;;;;;;6.00;2.75;;;;;;;;;;5092760;28;20044;-68
2021/06/21 12:36:03;;;;;;;4.63;2.38;;;;;;;;;;5092836;28;20064;-68
2021/06/21 12:38:29;;;;;;;7.30;2.28;;;;;;;;;;5086010;28;20357;-68
2021/06/21 12:40:54;;;;;;;5.57;2.80;;;;;;;;;;5087968;28;20074;-67
2021/06/21 12:43:19;;;;;;;4.88;2.80;;;;;;;;;;5091221;28;20032;-68
2021/06/21 12:45:45;;;;;;;5.38;2.60;;;;;;;;;;5091319;28;20040;-68
2021/06/21 12:48:10;;;;;;;9.95;2.70;;;;;;;;;;5091589;28;20377;-68
2021/06/21 12:50:35;;;;;;;7.95;2.42;;;;;;;;;;5091137;28;20107;-67
2021/06/21 12:53:01;;;;;;;5.63;2.72;;;;;;;;;;5091637;28;20089;-67
2021/06/21 12:55:27;;;;;;;6.70;2.58;;;;;;;;;;5090805;28;20381;-67
2021/06/21 12:57:55;;;;;;;4.03;2.53;;;;;;;;;;5091122;28;20040;-68
2021/06/21 13:00:37;;;;;;;8.68;2.72;;;;;;;;;;5091000;28;20028;-68
2021/06/21 13:03:22;;;;;;;6.00;2.13;;;;;;;;;;5091690;28;20044;-68
2021/06/21 13:05:56;;;;;;;6.53;2.40;;;;;;;;;;5090525;28;20099;-67
2021/06/21 13:08:32;;;;;;;5.72;2.30;;;;;;;;;;5091384;28;20305;-67
2021/06/21 13:11:03;;;;;;;5.38;2.58;;;;;;;;;;5090417;28;20078;-67
2021/06/21 13:13:42;;;;;;;6.85;2.83;;;;;;;;;;5091198;28;20036;-68
2021/06/21 13:16:11;;;;;;;4.43;2.65;;;;;;;;;;5091091;28;20488;-67
2021/06/21 13:18:45;;;;;;;6.93;2.22;;;;;;;;;;5090996;28;20032;-67
2021/06/21 13:21:12;;;;;;;6.43;2.43;;;;;;;;;;5091152;28;20063;-67
2021/06/21 13:23:50;;;;;;;5.38;2.17;;;;;;;;;;5091033;28;20036;-67
2021/06/21 13:26:15;;;;;;;4.18;2.00;;;;;;;;;;5090866;28;20047;-68
2021/06/21 13:28:43;;;;;;;6.80;2.47;;;;;;;;;;5090790;28;20119;-68
2021/06/21 13:31:11;;;;;;;9.77;2.53;;;;;;;;;;5089330;28;20094;-67
2021/06/21 13:33:43;;;;;;;5.10;2.00;;;;;;;;;;5090975;28;20016;-67
2021/06/21 13:36:09;;;;;;;3.65;2.40;;;;;;;;;;5088847;28;20032;-67
2021/06/21 13:38:35;;;;;;;5.50;2.53;;;;;;;;;;5090303;28;20028;-67
2021/06/21 13:41:01;;;;;;;6.13;2.10;;;;;;;;;;5090002;28;20024;-67
2021/06/21 13:43:31;;;;;;;5.45;2.13;;;;;;;;;;5090701;28;20380;-66
2021/06/21 13:46:09;;;;;;;5.05;2.33;;;;;;;;;;5090247;28;20048;-68
2021/06/21 13:48:35;;;;;;;6.65;2.38;;;;;;;;;;5090454;28;20063;-67
2021/06/21 13:51:08;;;;;;;4.97;2.10;;;;;;;;;;5090247;28;20063;-65
2021/06/21 13:53:36;;;;;;;6.15;2.35;;;;;;;;;;5089390;28;20028;-67
2021/06/21 13:56:23;;;;;;;8.23;2.30;;;;;;;;;;5089805;28;20474;-67
2021/06/21 13:58:55;;;;;;;4.07;2.00;;;;;;;;;;5088854;28;20044;-67
2021/06/21 14:01:20;;;;;;;4.32;2.30;;;;;;;;;;5089564;28;20477;-68
2021/06/21 14:03:46;;;;;;;2.80;1.88;;;;;;;;;;5089530;28;20058;-68
2021/06/21 14:06:11;;;;;;;3.72;2.05;;;;;;;;;;5089370;28;20472;-68
2021/06/21 14:08:37;;;;;;;4.65;2.13;;;;;;;;;;5090556;28;20048;-67
2021/06/21 14:11:09;;;;;;;5.28;1.98;;;;;;;;;;5089731;28;20131;-67
2021/06/21 14:13:39;;;;;;;3.40;1.92;;;;;;;;;;5090486;28;20020;-67
2021/06/21 14:16:05;;;;;;;4.05;1.92;;;;;;;;;;5088716;28;20043;-68
2021/06/21 14:18:30;;;;;;;5.43;2.10;;;;;;;;;;5089453;28;20036;-68
2021/06/21 14:20:55;;;;;;;4.00;2.13;;;;;;;;;;5088683;28;20460;-66
2021/06/21 14:23:22;;;;;;;4.88;2.13;;;;;;;;;;5090152;28;20059;-68
2021/06/21 14:25:47;;;;;;;5.80;2.25;;;;;;;;;;5089753;28;20032;-68
2021/06/21 14:28:13;;;;;;;3.58;1.70;;;;;;;;;;5090445;28;20026;-68
2021/06/21 14:30:39;;;;;;;8.50;2.03;;;;;;;;;;5089371;28;20036;-68
2021/06/21 14:33:04;;;;;;;4.07;2.00;;;;;;;;;;5089709;28;20062;-68
2021/06/21 14:35:30;;;;;;;4.60;1.90;;;;;;;;;;5089636;28;20122;-69
2021/06/21 14:37:55;;;;;;;5.25;2.10;;;;;;;;;;5089212;28;20074;-67
2021/06/21 14:40:20;;;;;;;3.85;1.85;;;;;;;;;;5090333;28;20039;-68
2021/06/21 14:42:46;;;;;;;5.47;2.35;;;;;;;;;;5088695;28;20016;-67